createdAt,value
2018-09-11T00:00:18.659Z,15.30
2018-09-11T00:02:47.188Z,15.30
2018-09-11T00:05:15.585Z,15.30
2018-09-11T00:07:44.063Z,15.30
2018-09-11T00:10:12.539Z,15.30
2018-09-11T00:12:40.988Z,15.30
2018-09-11T00:15:09.456Z,15.30
2018-09-11T00:17:37.906Z,15.30
2018-09-11T00:20:06.514Z,15.30
2018-09-11T00:22:34.956Z,15.20
2018-09-11T00:25:03.430Z,15.20
2018-09-11T00:27:31.860Z,15.30
2018-09-11T00:30:00.319Z,15.30
2018-09-11T00:32:28.798Z,15.30
2018-09-11T00:34:57.216Z,15.30
2018-09-11T00:37:25.644Z,15.30
2018-09-11T00:39:54.075Z,15.30
2018-09-11T00:42:22.510Z,15.20
2018-09-11T00:44:50.970Z,15.20
2018-09-11T00:47:19.381Z,15.20
2018-09-11T00:49:47.877Z,15.20
2018-09-11T00:52:16.366Z,15.20
2018-09-11T00:54:44.866Z,15.20
2018-09-11T00:57:13.314Z,15.10
2018-09-11T00:59:41.717Z,15.10
2018-09-11T01:02:10.136Z,15.10
2018-09-11T01:04:38.577Z,15.00
2018-09-11T01:07:07.088Z,15.00
2018-09-11T01:09:35.550Z,15.10
2018-09-11T01:12:04.041Z,15.00
2018-09-11T01:14:32.571Z,15.10
2018-09-11T01:17:01.001Z,15.10
2018-09-11T01:19:29.413Z,15.00
2018-09-11T01:21:57.872Z,15.00
2018-09-11T01:24:26.303Z,15.00
2018-09-11T01:26:54.734Z,15.00
2018-09-11T01:29:23.143Z,15.00
2018-09-11T01:31:51.581Z,15.00
2018-09-11T01:34:20.019Z,15.00
2018-09-11T01:36:48.503Z,15.00
2018-09-11T01:39:16.933Z,15.00
2018-09-11T01:41:45.360Z,15.10
2018-09-11T01:44:13.803Z,15.10
2018-09-11T01:46:42.245Z,15.10
2018-09-11T01:49:10.679Z,15.10
2018-09-11T01:51:39.149Z,15.00
2018-09-11T01:54:07.597Z,15.10
2018-09-11T01:56:36.029Z,15.10
2018-09-11T01:59:04.515Z,15.10
2018-09-11T02:01:32.921Z,15.00
2018-09-11T02:04:01.351Z,15.00
2018-09-11T02:06:29.819Z,15.00
2018-09-11T02:08:58.245Z,14.90
2018-09-11T02:11:26.693Z,14.90
2018-09-11T02:13:55.133Z,15.00
2018-09-11T02:16:23.602Z,15.00
2018-09-11T02:18:52.011Z,14.90
2018-09-11T02:21:20.432Z,14.90
2018-09-11T02:23:48.863Z,14.90
2018-09-11T02:26:17.836Z,14.90
2018-09-11T02:28:46.426Z,14.90
2018-09-11T02:31:15.039Z,14.90
2018-09-11T02:33:43.455Z,14.80
2018-09-11T02:36:11.920Z,14.80
2018-09-11T02:38:40.345Z,14.80
2018-09-11T02:41:08.845Z,14.90
2018-09-11T02:43:37.722Z,14.80
2018-09-11T02:46:06.283Z,14.90
2018-09-11T02:48:34.780Z,15.00
2018-09-11T02:51:03.338Z,15.10
2018-09-11T02:53:31.799Z,15.20
2018-09-11T02:56:00.248Z,15.30
2018-09-11T02:58:28.667Z,15.30
2018-09-11T03:00:57.115Z,15.20
2018-09-11T03:03:25.580Z,15.20
2018-09-11T03:05:54.055Z,15.20
2018-09-11T03:08:22.488Z,15.10
2018-09-11T03:10:50.965Z,15.10
2018-09-11T03:13:19.512Z,15.10
2018-09-11T03:15:47.997Z,15.10
2018-09-11T03:18:16.549Z,15.10
2018-09-11T03:20:44.963Z,15.10
2018-09-11T03:23:13.413Z,15.20
2018-09-11T03:25:41.815Z,15.20
2018-09-11T03:28:10.241Z,15.20
2018-09-11T03:30:38.711Z,15.20
2018-09-11T03:33:07.177Z,15.20
2018-09-11T03:35:35.631Z,15.20
2018-09-11T03:38:04.091Z,15.20
2018-09-11T03:40:32.573Z,15.20
2018-09-11T03:43:01.058Z,15.20
2018-09-11T03:45:29.502Z,15.20
2018-09-11T03:47:57.913Z,15.30
2018-09-11T03:50:26.423Z,15.30
2018-09-11T03:52:54.849Z,15.30
2018-09-11T03:55:23.346Z,15.40
2018-09-11T03:57:51.757Z,15.40
2018-09-11T04:00:20.197Z,15.40
2018-09-11T04:02:48.628Z,15.40
2018-09-11T04:05:17.066Z,15.40
2018-09-11T04:07:45.513Z,15.40
2018-09-11T04:10:13.900Z,15.30
2018-09-11T04:12:42.328Z,15.30
2018-09-11T04:15:10.760Z,15.30
2018-09-11T04:17:42.037Z,15.30
2018-09-11T04:20:10.442Z,15.30
2018-09-11T04:22:39.829Z,15.30
2018-09-11T04:25:08.478Z,15.30
2018-09-11T04:27:36.946Z,15.20
2018-09-11T04:30:05.609Z,15.20
2018-09-11T04:32:34.080Z,15.20
2018-09-11T04:35:02.545Z,15.20
2018-09-11T04:37:31.008Z,15.30
2018-09-11T04:39:59.596Z,15.30
2018-09-11T04:42:28.039Z,15.30
2018-09-11T04:44:56.487Z,15.30
2018-09-11T04:47:24.961Z,15.30
2018-09-11T04:49:53.433Z,15.30
2018-09-11T04:52:21.870Z,15.30
2018-09-11T04:54:50.345Z,15.30
2018-09-11T04:57:18.791Z,15.40
2018-09-11T04:59:47.208Z,15.50
2018-09-11T05:02:15.671Z,15.50
2018-09-11T05:04:44.380Z,15.50
2018-09-11T05:07:12.809Z,15.50
2018-09-11T05:09:41.228Z,15.50
2018-09-11T05:12:09.679Z,15.40
2018-09-11T05:14:38.255Z,15.40
2018-09-11T05:17:07.126Z,15.40
2018-09-11T05:19:35.588Z,15.40
2018-09-11T05:22:04.059Z,15.40
2018-09-11T05:24:32.491Z,15.30
2018-09-11T05:27:00.938Z,15.40
2018-09-11T05:29:29.457Z,15.40
2018-09-11T05:31:57.983Z,15.40
2018-09-11T05:34:27.845Z,15.30
2018-09-11T05:36:56.302Z,15.30
2018-09-11T05:39:24.750Z,15.40
2018-09-11T05:41:53.304Z,15.40
2018-09-11T05:44:23.792Z,15.40
2018-09-11T05:46:54.116Z,15.40
2018-09-11T05:49:22.594Z,15.40
2018-09-11T05:51:51.066Z,15.50
2018-09-11T05:54:19.648Z,15.50
2018-09-11T05:56:48.123Z,15.50
2018-09-11T05:59:17.140Z,15.60
2018-09-11T06:01:45.604Z,15.60
2018-09-11T06:04:14.079Z,15.70
2018-09-11T06:06:42.592Z,15.80
2018-09-11T06:09:12.861Z,15.80
2018-09-11T06:11:41.518Z,15.90
2018-09-11T06:14:10.198Z,16.00
2018-09-11T06:16:38.687Z,16.20
2018-09-11T06:19:07.356Z,16.30
2018-09-11T06:21:35.845Z,16.40
2018-09-11T06:24:04.407Z,16.40
2018-09-11T06:26:32.863Z,16.50
2018-09-11T06:29:01.375Z,16.60
2018-09-11T06:31:29.793Z,16.80
2018-09-11T06:33:58.313Z,16.90
2018-09-11T06:36:26.754Z,16.90
2018-09-11T06:38:55.293Z,16.90
2018-09-11T06:41:23.750Z,16.90
2018-09-11T06:43:52.199Z,16.90
2018-09-11T06:46:20.721Z,16.90
2018-09-11T06:48:49.169Z,16.90
2018-09-11T06:51:17.653Z,16.90
2018-09-11T06:53:46.132Z,16.90
2018-09-11T06:56:14.579Z,17.00
2018-09-11T06:58:43.055Z,17.20
2018-09-11T07:01:11.498Z,17.30
2018-09-11T07:03:39.943Z,17.40
2018-09-11T07:06:08.389Z,17.60
2018-09-11T07:08:36.934Z,17.70
2018-09-11T07:11:05.596Z,17.90
2018-09-11T07:13:34.040Z,18.00
2018-09-11T07:16:02.528Z,18.20
2018-09-11T07:18:30.950Z,18.40
2018-09-11T07:20:59.406Z,18.80
2018-09-11T07:23:27.844Z,18.70
2018-09-11T07:25:56.338Z,19.20
2018-09-11T07:28:24.771Z,19.90
2018-09-11T07:30:53.260Z,20.20
2018-09-11T07:33:21.680Z,20.60
2018-09-11T07:35:50.130Z,21.00
2018-09-11T07:38:18.566Z,21.00
2018-09-11T07:40:47.120Z,21.40
2018-09-11T07:43:15.804Z,22.00
2018-09-11T07:45:44.340Z,22.10
2018-09-11T07:48:12.818Z,22.50
2018-09-11T07:50:41.362Z,22.80
2018-09-11T07:53:09.830Z,22.80
2018-09-11T07:55:38.305Z,22.80
2018-09-11T07:58:06.869Z,22.70
2018-09-11T08:00:35.252Z,23.50
2018-09-11T08:03:03.752Z,23.70
2018-09-11T08:05:32.226Z,23.90
2018-09-11T08:08:00.655Z,24.20
2018-09-11T08:10:29.100Z,24.10
2018-09-11T08:12:57.819Z,24.10
2018-09-11T08:15:26.298Z,23.90
2018-09-11T08:17:54.723Z,24.00
2018-09-11T08:20:23.196Z,24.10
2018-09-11T08:22:51.653Z,23.80
2018-09-11T08:25:20.082Z,24.30
2018-09-11T08:27:48.911Z,24.20
2018-09-11T08:30:17.376Z,24.80
2018-09-11T08:32:45.903Z,24.40
2018-09-11T08:35:14.342Z,24.40
2018-09-11T08:37:42.776Z,24.10
2018-09-11T08:40:11.198Z,24.40
2018-09-11T08:42:39.648Z,24.50
2018-09-11T08:45:08.406Z,25.10
2018-09-11T08:47:36.853Z,25.30
2018-09-11T08:50:05.453Z,25.50
2018-09-11T08:52:33.911Z,26.20
2018-09-11T08:55:02.383Z,26.40
2018-09-11T08:57:30.860Z,25.80
2018-09-11T08:59:59.315Z,25.80
2018-09-11T09:02:27.744Z,26.50
2018-09-11T09:04:56.221Z,26.90
2018-09-11T09:07:24.672Z,26.80
2018-09-11T09:09:53.159Z,27.00
2018-09-11T09:12:21.639Z,26.80
2018-09-11T09:14:50.115Z,27.40
2018-09-11T09:17:18.617Z,27.70
2018-09-11T09:19:47.075Z,27.50
2018-09-11T09:22:15.561Z,27.30
2018-09-11T09:24:43.975Z,27.30
2018-09-11T09:27:12.475Z,27.60
2018-09-11T09:29:40.883Z,27.40
2018-09-11T09:32:09.541Z,27.90
2018-09-11T09:34:37.958Z,28.70
2018-09-11T09:37:06.487Z,29.30
2018-09-11T09:39:34.930Z,29.90
2018-09-11T09:42:03.384Z,30.10
2018-09-11T09:44:31.815Z,29.80
2018-09-11T09:47:00.234Z,30.70
2018-09-11T09:49:28.703Z,30.50
2018-09-11T09:51:57.124Z,30.00
2018-09-11T09:54:25.625Z,29.60
2018-09-11T09:56:54.078Z,29.40
2018-09-11T09:59:22.526Z,29.10
2018-09-11T10:01:56.426Z,28.90
2018-09-11T10:04:24.898Z,28.50
2018-09-11T10:06:53.359Z,29.10
2018-09-11T10:09:21.902Z,29.90
2018-09-11T10:11:50.374Z,29.90
2018-09-11T10:14:18.787Z,30.70
2018-09-11T10:16:47.283Z,30.70
2018-09-11T10:19:15.751Z,31.40
2018-09-11T10:21:44.221Z,31.40
2018-09-11T10:24:12.654Z,31.00
2018-09-11T10:26:41.130Z,31.30
2018-09-11T10:29:09.570Z,31.40
2018-09-11T10:31:38.035Z,31.10
2018-09-11T10:34:06.464Z,31.40
2018-09-11T10:36:34.894Z,31.00
2018-09-11T10:39:03.477Z,31.10
2018-09-11T10:41:31.898Z,31.10
2018-09-11T10:44:00.347Z,31.50
2018-09-11T10:46:28.809Z,31.60
2018-09-11T10:48:57.266Z,31.70
2018-09-11T10:51:25.701Z,31.60
2018-09-11T10:53:54.133Z,31.30
2018-09-11T10:56:22.585Z,31.00
2018-09-11T10:58:51.065Z,30.60
2018-09-11T11:01:19.521Z,31.30
2018-09-11T11:03:48.013Z,30.90
2018-09-11T11:06:16.469Z,31.00
2018-09-11T11:08:44.929Z,31.90
2018-09-11T11:11:13.373Z,32.00
2018-09-11T11:13:41.925Z,32.00
2018-09-11T11:16:10.470Z,33.00
2018-09-11T11:18:38.899Z,32.70
2018-09-11T11:21:07.318Z,32.30
2018-09-11T11:23:35.757Z,32.20
2018-09-11T11:26:04.194Z,32.50
2018-09-11T11:28:32.683Z,33.10
2018-09-11T11:31:01.167Z,32.60
2018-09-11T11:33:29.645Z,32.80
2018-09-11T11:35:58.211Z,33.20
2018-09-11T11:38:26.561Z,33.70
2018-09-11T11:40:54.996Z,33.50
2018-09-11T11:43:23.438Z,32.70
2018-09-11T11:45:52.654Z,33.20
2018-09-11T11:48:21.198Z,33.70
2018-09-11T11:50:49.627Z,33.90
2018-09-11T11:53:18.318Z,33.50
2018-09-11T11:55:46.761Z,33.50
2018-09-11T11:58:15.178Z,33.90
2018-09-11T12:00:43.591Z,34.10
2018-09-11T12:03:12.078Z,33.60
2018-09-11T12:05:40.495Z,32.50
2018-09-11T12:08:08.937Z,33.20
2018-09-11T12:10:37.379Z,33.60
2018-09-11T12:13:05.875Z,34.00
2018-09-11T12:15:34.289Z,33.60
2018-09-11T12:18:02.720Z,33.10
2018-09-11T12:20:31.193Z,33.10
2018-09-11T12:22:59.638Z,33.60
2018-09-11T12:25:28.130Z,34.80
2018-09-11T12:27:56.499Z,34.80
2018-09-11T12:30:24.926Z,33.60
2018-09-11T12:32:53.401Z,33.60
2018-09-11T12:35:21.822Z,33.60
2018-09-11T12:37:50.257Z,34.00
2018-09-11T12:40:18.723Z,34.00
2018-09-11T12:42:47.161Z,33.30
2018-09-11T12:45:15.620Z,33.50
2018-09-11T12:47:44.402Z,34.20
2018-09-11T12:50:12.483Z,33.60
2018-09-11T12:52:40.988Z,33.80
2018-09-11T12:55:09.425Z,33.10
2018-09-11T12:57:37.863Z,33.00
2018-09-11T13:00:07.773Z,33.40
2018-09-11T13:02:36.219Z,33.70
2018-09-11T13:05:04.702Z,33.40
2018-09-11T13:07:33.133Z,33.30
2018-09-11T13:10:01.593Z,33.80
2018-09-11T13:12:30.006Z,34.30
2018-09-11T13:14:58.837Z,34.20
2018-09-11T13:17:27.223Z,34.20
2018-09-11T13:19:55.688Z,34.00
2018-09-11T13:22:24.107Z,33.80
2018-09-11T13:24:52.536Z,33.70
2018-09-11T13:27:20.946Z,33.60
2018-09-11T13:29:49.392Z,33.40
2018-09-11T13:32:17.824Z,33.80
2018-09-11T13:34:46.262Z,33.70
2018-09-11T13:37:14.700Z,33.80
2018-09-11T13:39:43.145Z,33.50
2018-09-11T13:42:11.578Z,33.30
2018-09-11T13:44:40.007Z,33.30
2018-09-11T13:47:08.534Z,33.20
2018-09-11T13:49:36.882Z,33.40
2018-09-11T13:52:05.331Z,33.70
2018-09-11T13:54:33.769Z,33.30
2018-09-11T13:57:02.225Z,33.70
2018-09-11T13:59:30.749Z,33.40
2018-09-11T14:01:59.235Z,32.90
2018-09-11T14:04:27.669Z,32.40
2018-09-11T14:06:56.105Z,32.20
2018-09-11T14:09:24.599Z,31.90
2018-09-11T14:11:53.023Z,32.30
2018-09-11T14:14:21.471Z,32.20
2018-09-11T14:16:49.969Z,32.30
2018-09-11T14:19:18.459Z,32.10
2018-09-11T14:21:46.974Z,31.40
2018-09-11T14:24:15.484Z,31.70
2018-09-11T14:26:44.021Z,31.90
2018-09-11T14:29:12.441Z,31.60
2018-09-11T14:31:40.897Z,31.00
2018-09-11T14:34:09.362Z,30.20
2018-09-11T14:36:37.832Z,30.00
2018-09-11T14:39:08.004Z,30.30
2018-09-11T14:41:36.491Z,30.60
2018-09-11T14:44:05.032Z,30.70
2018-09-11T14:46:33.532Z,30.50
2018-09-11T14:49:02.052Z,29.90
2018-09-11T14:51:30.562Z,29.40
2018-09-11T14:53:59.127Z,29.90
2018-09-11T14:56:27.611Z,30.10
2018-09-11T14:58:56.090Z,30.50
2018-09-11T15:01:24.565Z,30.50
2018-09-11T15:03:53.935Z,30.80
2018-09-11T15:06:22.431Z,31.00
2018-09-11T15:08:50.902Z,30.90
2018-09-11T15:11:19.462Z,30.60
2018-09-11T15:13:47.936Z,30.80
2018-09-11T15:16:16.411Z,31.50
2018-09-11T15:18:44.812Z,32.20
2018-09-11T15:21:13.268Z,31.90
2018-09-11T15:23:41.729Z,31.40
2018-09-11T15:26:10.231Z,30.60
2018-09-11T15:28:38.750Z,30.50
2018-09-11T15:31:07.171Z,30.10
2018-09-11T15:33:35.608Z,29.00
2018-09-11T15:36:04.180Z,27.80
2018-09-11T15:38:32.637Z,27.20
2018-09-11T15:41:01.116Z,26.60
2018-09-11T15:43:29.573Z,26.00
2018-09-11T15:45:58.009Z,25.60
2018-09-11T15:48:26.465Z,25.10
2018-09-11T15:50:54.993Z,24.90
2018-09-11T15:53:23.427Z,24.50
2018-09-11T15:55:52.054Z,24.50
2018-09-11T15:58:22.789Z,24.50
2018-09-11T16:00:51.998Z,24.30
2018-09-11T16:03:20.819Z,24.00
2018-09-11T16:05:49.319Z,23.70
2018-09-11T16:08:23.774Z,23.60
2018-09-11T16:10:52.261Z,23.60
2018-09-11T16:13:20.919Z,23.60
2018-09-11T16:15:53.509Z,23.60
2018-09-11T16:18:21.965Z,23.50
2018-09-11T16:20:50.518Z,23.30
2018-09-11T16:23:19.020Z,23.20
2018-09-11T16:25:47.528Z,23.20
2018-09-11T16:28:16.040Z,23.10
2018-09-11T16:30:44.600Z,22.90
2018-09-11T16:33:13.089Z,22.90
2018-09-11T16:35:41.527Z,22.80
2018-09-11T16:38:09.963Z,22.90
2018-09-11T16:40:38.636Z,22.80
2018-09-11T16:43:10.902Z,22.70
2018-09-11T16:45:46.483Z,22.60
2018-09-11T16:48:15.931Z,22.60
2018-09-11T16:50:44.396Z,22.50
2018-09-11T16:53:21.002Z,22.40
2018-09-11T16:55:52.758Z,22.40
2018-09-11T16:58:21.207Z,22.30
2018-09-11T17:00:51.618Z,22.20
2018-09-11T17:03:20.082Z,22.20
2018-09-11T17:05:48.554Z,22.10
2018-09-11T17:08:17.026Z,22.00
2018-09-11T17:10:45.732Z,21.90
2018-09-11T17:13:14.264Z,21.80
2018-09-11T17:15:42.744Z,21.80
2018-09-11T17:18:11.332Z,21.80
2018-09-11T17:20:40.665Z,21.70
2018-09-11T17:23:09.144Z,21.60
2018-09-11T17:25:37.595Z,21.50
2018-09-11T17:28:06.125Z,21.40
2018-09-11T17:30:35.529Z,21.30
2018-09-11T17:33:04.040Z,21.20
2018-09-11T17:35:32.507Z,21.20
2018-09-11T17:38:01.049Z,21.10
2018-09-11T17:40:29.529Z,21.10
2018-09-11T17:42:58.057Z,21.00
2018-09-11T17:45:26.497Z,20.90
2018-09-11T17:47:55.910Z,20.80
2018-09-11T17:50:24.422Z,20.70
2018-09-11T17:52:52.855Z,20.60
2018-09-11T17:55:21.360Z,20.50
2018-09-11T17:57:49.787Z,20.50
2018-09-11T18:00:18.244Z,20.40
2018-09-11T18:02:46.673Z,20.40
2018-09-11T18:05:15.127Z,20.30
2018-09-11T18:07:43.600Z,20.20
2018-09-11T18:10:12.041Z,20.20
2018-09-11T18:12:40.514Z,20.10
2018-09-11T18:15:09.061Z,20.00
2018-09-11T18:17:37.551Z,19.90
2018-09-11T18:20:06.173Z,19.90
2018-09-11T18:22:34.611Z,19.80
2018-09-11T18:25:03.171Z,19.70
2018-09-11T18:27:31.671Z,19.60
2018-09-11T18:30:00.217Z,19.60
2018-09-11T18:32:28.669Z,19.60
2018-09-11T18:34:57.105Z,19.50
2018-09-11T18:37:25.563Z,19.50
2018-09-11T18:39:54.042Z,19.50
2018-09-11T18:42:22.518Z,19.40
2018-09-11T18:44:51.011Z,19.40
2018-09-11T18:47:19.441Z,19.30
2018-09-11T18:49:47.897Z,19.30
2018-09-11T18:52:16.364Z,19.30
2018-09-11T18:54:44.812Z,19.20
2018-09-11T18:57:13.289Z,19.20
2018-09-11T18:59:41.754Z,19.20
2018-09-11T19:02:10.226Z,19.20
2018-09-11T19:04:38.720Z,19.10
2018-09-11T19:07:07.179Z,19.00
2018-09-11T19:09:35.692Z,19.00
2018-09-11T19:12:04.218Z,19.00
2018-09-11T19:14:32.728Z,18.90
2018-09-11T19:17:01.207Z,19.00
2018-09-11T19:19:29.652Z,18.90
2018-09-11T19:21:58.144Z,18.90
2018-09-11T19:24:26.623Z,18.90
2018-09-11T19:26:55.185Z,18.90
2018-09-11T19:29:23.603Z,18.80
2018-09-11T19:31:52.071Z,18.80
2018-09-11T19:34:20.544Z,18.80
2018-09-11T19:36:49.048Z,18.80
2018-09-11T19:39:17.560Z,18.80
2018-09-11T19:41:46.059Z,18.80
2018-09-11T19:44:14.583Z,18.80
2018-09-11T19:46:43.050Z,18.80
2018-09-11T19:49:11.542Z,18.80
2018-09-11T19:51:39.992Z,18.70
2018-09-11T19:54:08.447Z,18.70
2018-09-11T19:56:36.917Z,18.70
2018-09-11T19:59:05.435Z,18.70
2018-09-11T20:01:33.881Z,18.70
2018-09-11T20:04:02.350Z,18.70
2018-09-11T20:06:30.825Z,18.60
2018-09-11T20:08:59.319Z,18.60
2018-09-11T20:11:27.790Z,18.60
2018-09-11T20:13:56.375Z,18.60
2018-09-11T20:16:24.842Z,18.60
2018-09-11T20:18:53.274Z,18.50
2018-09-11T20:21:21.762Z,18.50
2018-09-11T20:23:50.230Z,18.50
2018-09-11T20:26:18.756Z,18.50
2018-09-11T20:28:47.206Z,18.50
2018-09-11T20:31:15.670Z,18.50
2018-09-11T20:33:44.120Z,18.40
2018-09-11T20:36:12.594Z,18.40
2018-09-11T20:38:41.102Z,18.40
2018-09-11T20:41:09.530Z,18.30
2018-09-11T20:43:37.976Z,18.30
2018-09-11T20:46:06.434Z,18.30
2018-09-11T20:48:34.868Z,18.30
2018-09-11T20:51:03.323Z,18.20
2018-09-11T20:56:11.618Z,18.20
2018-09-11T20:58:41.142Z,18.20
2018-09-11T21:01:09.604Z,18.20
2018-09-11T21:03:38.074Z,18.20
2018-09-11T21:06:06.488Z,18.20
2018-09-11T21:08:34.934Z,18.20
2018-09-11T21:11:03.387Z,18.10
2018-09-11T21:13:31.840Z,18.10
2018-09-11T21:16:00.385Z,18.10
2018-09-11T21:18:28.824Z,18.10
2018-09-11T21:20:57.284Z,18.10
2018-09-11T21:23:25.769Z,18.10
2018-09-11T21:26:01.027Z,18.20
2018-09-11T21:28:29.484Z,18.20
2018-09-11T21:30:57.929Z,18.20
2018-09-11T21:33:26.367Z,18.20
2018-09-11T21:35:54.841Z,18.20
2018-09-11T21:38:23.273Z,18.20
2018-09-11T21:40:51.699Z,18.20
2018-09-11T21:43:20.107Z,18.20
2018-09-11T21:45:48.551Z,18.30
2018-09-11T21:48:16.974Z,18.30
2018-09-11T21:50:45.408Z,18.30
2018-09-11T21:53:13.874Z,18.40
2018-09-11T21:55:42.314Z,18.40
2018-09-11T21:58:10.800Z,18.50
2018-09-11T22:00:43.485Z,18.50
2018-09-11T22:03:11.927Z,18.60
2018-09-11T22:05:40.527Z,18.70
2018-09-11T22:08:08.884Z,18.70
2018-09-11T22:10:37.360Z,18.70
2018-09-11T22:13:05.846Z,18.70
2018-09-11T22:15:34.289Z,18.80
2018-09-11T22:18:02.796Z,18.80
2018-09-11T22:20:31.255Z,18.80
2018-09-11T22:22:59.661Z,18.80
2018-09-11T22:25:28.070Z,18.80
2018-09-11T22:27:56.566Z,18.90
2018-09-11T22:30:25.091Z,18.90
2018-09-11T22:32:53.497Z,19.00
2018-09-11T22:35:21.951Z,19.00
2018-09-11T22:37:50.451Z,19.00
2018-09-11T22:40:19.077Z,19.10
2018-09-11T22:42:47.544Z,19.10
2018-09-11T22:45:15.997Z,19.20
2018-09-11T22:47:44.397Z,19.10
2018-09-11T22:50:12.885Z,19.10
2018-09-11T22:52:41.334Z,19.20
2018-09-11T22:55:09.749Z,19.10
2018-09-11T22:57:38.201Z,19.10
2018-09-11T23:00:06.677Z,19.10
2018-09-11T23:02:35.103Z,19.20
2018-09-11T23:05:03.597Z,19.20
2018-09-11T23:07:32.052Z,19.10
2018-09-11T23:10:00.504Z,19.20
2018-09-11T23:12:28.915Z,19.10
2018-09-11T23:14:57.361Z,19.20
2018-09-11T23:17:25.803Z,19.20
2018-09-11T23:19:54.237Z,19.20
2018-09-11T23:22:22.683Z,19.20
2018-09-11T23:24:51.106Z,19.20
2018-09-11T23:27:19.524Z,19.20
2018-09-11T23:29:47.975Z,19.20
2018-09-11T23:32:16.432Z,19.20
2018-09-11T23:34:44.856Z,19.20
2018-09-11T23:37:13.308Z,19.20
2018-09-11T23:39:41.758Z,19.20
2018-09-11T23:42:10.204Z,19.20
2018-09-11T23:44:38.752Z,19.20
2018-09-11T23:47:07.208Z,19.20
2018-09-11T23:49:35.700Z,19.20
2018-09-11T23:52:04.134Z,19.10
2018-09-11T23:54:32.545Z,19.10
2018-09-11T23:57:01.040Z,19.00
2018-09-11T23:59:29.472Z,19.00
